sensor_id;sensor_type;location;lat;lon;timestamp;P1;durP1;ratioP1;P2;durP2;ratioP2
23384;SDS011;11865;45.394;10.978;2022-08-19T10:09:27;10.43;;;4.57;;
23384;SDS011;11865;45.394;10.978;2022-08-19T10:12:01;11.52;;;4.80;;
23384;SDS011;11865;45.394;10.978;2022-08-19T10:14:30;7.22;;;4.30;;
23384;SDS011;11865;45.394;10.978;2022-08-19T10:16:57;7.78;;;4.00;;
23384;SDS011;11865;45.394;10.978;2022-08-19T10:19:44;10.43;;;4.05;;
23384;SDS011;11865;45.394;10.978;2022-08-19T10:22:21;5.78;;;4.03;;
23384;SDS011;11865;45.394;10.978;2022-08-19T10:24:51;7.68;;;4.60;;
23384;SDS011;11865;45.394;10.978;2022-08-19T10:27:19;10.60;;;4.10;;
23384;SDS011;11865;45.394;10.978;2022-08-19T10:29:47;8.07;;;3.70;;
23384;SDS011;11865;45.394;10.978;2022-08-19T10:32:15;6.40;;;3.63;;
23384;SDS011;11865;45.394;10.978;2022-08-19T10:34:42;7.40;;;3.88;;
23384;SDS011;11865;45.394;10.978;2022-08-19T10:37:15;6.88;;;3.67;;
23384;SDS011;11865;45.394;10.978;2022-08-19T10:39:55;6.65;;;3.55;;
23384;SDS011;11865;45.394;10.978;2022-08-19T10:42:22;10.25;;;3.78;;
23384;SDS011;11865;45.394;10.978;2022-08-19T10:44:49;8.25;;;3.35;;
23384;SDS011;11865;45.394;10.978;2022-08-19T10:47:18;4.78;;;3.38;;
23384;SDS011;11865;45.394;10.978;2022-08-19T10:49:57;5.95;;;3.20;;
23384;SDS011;11865;45.394;10.978;2022-08-19T10:52:43;7.95;;;3.70;;
23384;SDS011;11865;45.394;10.978;2022-08-19T10:55:20;7.63;;;3.80;;
23384;SDS011;11865;45.394;10.978;2022-08-19T10:58:15;7.80;;;3.85;;
23384;SDS011;11865;45.394;10.978;2022-08-19T11:00:50;6.13;;;4.43;;
23384;SDS011;11865;45.394;10.978;2022-08-19T11:03:22;9.65;;;4.78;;
23384;SDS011;11865;45.394;10.978;2022-08-19T11:05:57;9.18;;;4.68;;
23384;SDS011;11865;45.394;10.978;2022-08-19T11:08:28;8.95;;;5.18;;
23384;SDS011;11865;45.394;10.978;2022-08-19T11:10:58;9.85;;;4.75;;
23384;SDS011;11865;45.394;10.978;2022-08-19T11:13:28;11.05;;;5.00;;
23384;SDS011;11865;45.394;10.978;2022-08-19T11:16:01;9.73;;;5.10;;
23384;SDS011;11865;45.394;10.978;2022-08-19T11:18:35;8.40;;;4.60;;
23384;SDS011;11865;45.394;10.978;2022-08-19T11:21:05;9.52;;;5.30;;
23384;SDS011;11865;45.394;10.978;2022-08-19T11:23:37;7.63;;;5.50;;
23384;SDS011;11865;45.394;10.978;2022-08-19T11:26:04;8.52;;;5.40;;
23384;SDS011;11865;45.394;10.978;2022-08-19T11:28:32;9.77;;;5.47;;
23384;SDS011;11865;45.394;10.978;2022-08-19T11:31:00;9.07;;;5.35;;
23384;SDS011;11865;45.394;10.978;2022-08-19T11:33:30;8.80;;;5.55;;
23384;SDS011;11865;45.394;10.978;2022-08-19T11:35:58;6.13;;;5.45;;
23384;SDS011;11865;45.394;10.978;2022-08-19T11:38:27;10.00;;;5.72;;
23384;SDS011;11865;45.394;10.978;2022-08-19T11:40:55;6.30;;;5.32;;
23384;SDS011;11865;45.394;10.978;2022-08-19T11:43:24;8.13;;;5.32;;
23384;SDS011;11865;45.394;10.978;2022-08-19T11:45:53;11.68;;;5.90;;
23384;SDS011;11865;45.394;10.978;2022-08-19T11:48:23;8.63;;;5.65;;
23384;SDS011;11865;45.394;10.978;2022-08-19T11:50:52;6.70;;;5.10;;
23384;SDS011;11865;45.394;10.978;2022-08-19T11:53:23;8.15;;;5.25;;
23384;SDS011;11865;45.394;10.978;2022-08-19T11:55:52;8.45;;;5.18;;
23384;SDS011;11865;45.394;10.978;2022-08-19T11:58:23;9.25;;;5.32;;
23384;SDS011;11865;45.394;10.978;2022-08-19T12:00:51;11.73;;;5.38;;
23384;SDS011;11865;45.394;10.978;2022-08-19T12:03:19;6.22;;;4.70;;
23384;SDS011;11865;45.394;10.978;2022-08-19T12:05:47;6.97;;;4.43;;
23384;SDS011;11865;45.394;10.978;2022-08-19T12:08:16;7.38;;;4.85;;
23384;SDS011;11865;45.394;10.978;2022-08-19T12:10:45;9.10;;;4.70;;
23384;SDS011;11865;45.394;10.978;2022-08-19T12:13:14;10.02;;;4.80;;
23384;SDS011;11865;45.394;10.978;2022-08-19T12:15:42;8.00;;;4.32;;
23384;SDS011;11865;45.394;10.978;2022-08-19T12:18:12;9.30;;;4.93;;
23384;SDS011;11865;45.394;10.978;2022-08-19T12:20:41;7.75;;;4.40;;
23384;SDS011;11865;45.394;10.978;2022-08-19T12:23:09;6.35;;;4.28;;
23384;SDS011;11865;45.394;10.978;2022-08-19T12:25:42;8.27;;;4.50;;
23384;SDS011;11865;45.394;10.978;2022-08-19T12:28:19;7.53;;;4.47;;
23384;SDS011;11865;45.394;10.978;2022-08-19T12:30:48;8.48;;;4.30;;
23384;SDS011;11865;45.394;10.978;2022-08-19T12:33:19;5.20;;;4.00;;
23384;SDS011;11865;45.394;10.978;2022-08-19T12:35:52;4.90;;;3.60;;
23384;SDS011;11865;45.394;10.978;2022-08-19T12:38:20;5.18;;;3.25;;
23384;SDS011;11865;45.394;10.978;2022-08-19T12:40:50;5.43;;;3.67;;
23384;SDS011;11865;45.394;10.978;2022-08-19T12:43:24;6.22;;;3.47;;
23384;SDS011;11865;45.394;10.978;2022-08-19T12:45:51;5.38;;;2.90;;
23384;SDS011;11865;45.394;10.978;2022-08-19T12:48:19;6.55;;;3.08;;
23384;SDS011;11865;45.394;10.978;2022-08-19T12:51:05;6.93;;;3.25;;
23384;SDS011;11865;45.394;10.978;2022-08-19T12:53:35;3.20;;;2.90;;
23384;SDS011;11865;45.394;10.978;2022-08-19T12:56:05;6.85;;;4.15;;
23384;SDS011;11865;45.394;10.978;2022-08-19T12:58:38;7.55;;;3.72;;
23384;SDS011;11865;45.394;10.978;2022-08-19T13:01:07;4.57;;;3.10;;
23384;SDS011;11865;45.394;10.978;2022-08-19T13:03:35;5.80;;;3.60;;
23384;SDS011;11865;45.394;10.978;2022-08-19T13:06:07;7.13;;;3.10;;
23384;SDS011;11865;45.394;10.978;2022-08-19T13:08:36;6.88;;;3.50;;
23384;SDS011;11865;45.394;10.978;2022-08-19T13:11:08;4.85;;;3.50;;
23384;SDS011;11865;45.394;10.978;2022-08-19T13:13:39;4.20;;;2.90;;
23384;SDS011;11865;45.394;10.978;2022-08-19T13:16:09;4.57;;;3.00;;
23384;SDS011;11865;45.394;10.978;2022-08-19T13:18:38;6.78;;;3.90;;
23384;SDS011;11865;45.394;10.978;2022-08-19T13:21:07;6.97;;;3.75;;
23384;SDS011;11865;45.394;10.978;2022-08-19T13:23:36;6.18;;;3.65;;
23384;SDS011;11865;45.394;10.978;2022-08-19T13:26:05;5.75;;;4.00;;
23384;SDS011;11865;45.394;10.978;2022-08-19T13:28:34;6.45;;;3.80;;
23384;SDS011;11865;45.394;10.978;2022-08-19T13:31:21;6.40;;;4.55;;
23384;SDS011;11865;45.394;10.978;2022-08-19T13:34:09;5.57;;;3.92;;
23384;SDS011;11865;45.394;10.978;2022-08-19T13:36:37;5.63;;;3.17;;
23384;SDS011;11865;45.394;10.978;2022-08-19T13:39:05;5.97;;;3.80;;
23384;SDS011;11865;45.394;10.978;2022-08-19T13:41:35;5.03;;;3.33;;
23384;SDS011;11865;45.394;10.978;2022-08-19T13:44:04;6.03;;;3.80;;
23384;SDS011;11865;45.394;10.978;2022-08-19T13:46:33;7.07;;;3.40;;
23384;SDS011;11865;45.394;10.978;2022-08-19T13:49:00;4.45;;;3.25;;
23384;SDS011;11865;45.394;10.978;2022-08-19T13:51:28;5.32;;;3.28;;
23384;SDS011;11865;45.394;10.978;2022-08-19T13:53:55;4.85;;;3.20;;
23384;SDS011;11865;45.394;10.978;2022-08-19T13:56:23;4.60;;;3.55;;
23384;SDS011;11865;45.394;10.978;2022-08-19T13:58:52;4.60;;;3.50;;
23384;SDS011;11865;45.394;10.978;2022-08-19T14:01:22;4.60;;;3.03;;
23384;SDS011;11865;45.394;10.978;2022-08-19T14:03:50;7.72;;;3.60;;
23384;SDS011;11865;45.394;10.978;2022-08-19T14:06:19;4.82;;;3.38;;
23384;SDS011;11865;45.394;10.978;2022-08-19T14:08:48;4.28;;;3.25;;
23384;SDS011;11865;45.394;10.978;2022-08-19T14:11:15;4.55;;;3.00;;
23384;SDS011;11865;45.394;10.978;2022-08-19T14:13:43;5.63;;;3.67;;
23384;SDS011;11865;45.394;10.978;2022-08-19T14:16:12;6.50;;;3.05;;
23384;SDS011;11865;45.394;10.978;2022-08-19T14:18:41;4.82;;;3.22;;
23384;SDS011;11865;45.394;10.978;2022-08-19T14:21:13;3.97;;;3.50;;
23384;SDS011;11865;45.394;10.978;2022-08-19T14:23:44;7.03;;;3.33;;
23384;SDS011;11865;45.394;10.978;2022-08-19T14:26:13;3.92;;;2.50;;
23384;SDS011;11865;45.394;10.978;2022-08-19T14:28:43;5.22;;;3.53;;
23384;SDS011;11865;45.394;10.978;2022-08-19T14:31:12;5.95;;;4.13;;
23384;SDS011;11865;45.394;10.978;2022-08-19T14:33:48;5.63;;;4.13;;
23384;SDS011;11865;45.394;10.978;2022-08-19T14:36:15;6.53;;;3.20;;
23384;SDS011;11865;45.394;10.978;2022-08-19T14:38:43;7.70;;;3.72;;
23384;SDS011;11865;45.394;10.978;2022-08-19T14:41:16;5.65;;;3.55;;
23384;SDS011;11865;45.394;10.978;2022-08-19T14:43:48;5.70;;;3.35;;
23384;SDS011;11865;45.394;10.978;2022-08-19T14:46:18;4.80;;;3.33;;
23384;SDS011;11865;45.394;10.978;2022-08-19T14:48:54;5.28;;;2.75;;
23384;SDS011;11865;45.394;10.978;2022-08-19T14:51:23;4.70;;;2.30;;
23384;SDS011;11865;45.394;10.978;2022-08-19T14:53:51;5.32;;;3.50;;
23384;SDS011;11865;45.394;10.978;2022-08-19T14:56:21;7.03;;;3.20;;
23384;SDS011;11865;45.394;10.978;2022-08-19T14:58:51;6.75;;;3.10;;
23384;SDS011;11865;45.394;10.978;2022-08-19T15:01:20;4.30;;;2.90;;
23384;SDS011;11865;45.394;10.978;2022-08-19T15:03:49;6.65;;;2.92;;
23384;SDS011;11865;45.394;10.978;2022-08-19T15:06:19;4.75;;;2.20;;
23384;SDS011;11865;45.394;10.978;2022-08-19T15:08:48;3.28;;;2.60;;
23384;SDS011;11865;45.394;10.978;2022-08-19T15:11:19;5.55;;;2.42;;
23384;SDS011;11865;45.394;10.978;2022-08-19T15:13:49;3.88;;;2.88;;
23384;SDS011;11865;45.394;10.978;2022-08-19T15:16:17;5.90;;;2.80;;
23384;SDS011;11865;45.394;10.978;2022-08-19T15:18:46;6.18;;;2.38;;
23384;SDS011;11865;45.394;10.978;2022-08-19T15:21:16;5.72;;;2.53;;
23384;SDS011;11865;45.394;10.978;2022-08-19T15:23:54;6.35;;;2.58;;
23384;SDS011;11865;45.394;10.978;2022-08-19T15:26:23;5.32;;;2.60;;
23384;SDS011;11865;45.394;10.978;2022-08-19T15:28:53;5.05;;;2.60;;
23384;SDS011;11865;45.394;10.978;2022-08-19T15:31:20;5.07;;;2.38;;
23384;SDS011;11865;45.394;10.978;2022-08-19T15:33:55;6.72;;;2.33;;
23384;SDS011;11865;45.394;10.978;2022-08-19T15:36:25;4.40;;;2.38;;
23384;SDS011;11865;45.394;10.978;2022-08-19T15:38:54;4.80;;;2.50;;
23384;SDS011;11865;45.394;10.978;2022-08-19T15:41:23;5.15;;;1.98;;
23384;SDS011;11865;45.394;10.978;2022-08-19T15:43:58;4.87;;;2.97;;
23384;SDS011;11865;45.394;10.978;2022-08-19T15:46:30;4.70;;;2.30;;
23384;SDS011;11865;45.394;10.978;2022-08-19T15:49:00;3.03;;;1.73;;
23384;SDS011;11865;45.394;10.978;2022-08-19T15:51:28;3.05;;;1.95;;
23384;SDS011;11865;45.394;10.978;2022-08-19T15:53:58;4.00;;;2.10;;
23384;SDS011;11865;45.394;10.978;2022-08-19T15:56:25;3.33;;;1.95;;
23384;SDS011;11865;45.394;10.978;2022-08-19T15:59:24;4.95;;;2.25;;
23384;SDS011;11865;45.394;10.978;2022-08-19T16:02:14;9.48;;;3.70;;
23384;SDS011;11865;45.394;10.978;2022-08-19T16:05:03;4.93;;;2.22;;
23384;SDS011;11865;45.394;10.978;2022-08-19T16:07:52;4.43;;;2.30;;
23384;SDS011;11865;45.394;10.978;2022-08-19T16:10:20;4.57;;;1.92;;
23384;SDS011;11865;45.394;10.978;2022-08-19T16:12:54;3.63;;;1.90;;
23384;SDS011;11865;45.394;10.978;2022-08-19T16:15:27;6.07;;;2.00;;
23384;SDS011;11865;45.394;10.978;2022-08-19T16:17:56;4.00;;;1.60;;
23384;SDS011;11865;45.394;10.978;2022-08-19T16:20:24;4.40;;;2.05;;
23384;SDS011;11865;45.394;10.978;2022-08-19T16:22:54;3.20;;;2.13;;
23384;SDS011;11865;45.394;10.978;2022-08-19T16:25:24;8.43;;;2.00;;
23384;SDS011;11865;45.394;10.978;2022-08-19T16:27:55;3.08;;;1.75;;
23384;SDS011;11865;45.394;10.978;2022-08-19T16:30:35;5.18;;;1.80;;
23384;SDS011;11865;45.394;10.978;2022-08-19T16:33:04;2.60;;;1.42;;
23384;SDS011;11865;45.394;10.978;2022-08-19T16:35:33;2.58;;;1.50;;
23384;SDS011;11865;45.394;10.978;2022-08-19T16:38:00;3.50;;;1.38;;
23384;SDS011;11865;45.394;10.978;2022-08-19T16:40:28;2.67;;;1.55;;
23384;SDS011;11865;45.394;10.978;2022-08-19T16:42:55;6.05;;;1.77;;
23384;SDS011;11865;45.394;10.978;2022-08-19T16:45:23;3.08;;;1.77;;
23384;SDS011;11865;45.394;10.978;2022-08-19T16:47:50;5.72;;;1.90;;
23384;SDS011;11865;45.394;10.978;2022-08-19T16:50:18;4.18;;;1.63;;
23384;SDS011;11865;45.394;10.978;2022-08-19T16:53:08;3.70;;;1.58;;
23384;SDS011;11865;45.394;10.978;2022-08-19T16:55:35;4.85;;;1.73;;
23384;SDS011;11865;45.394;10.978;2022-08-19T16:58:03;2.88;;;1.45;;
23384;SDS011;11865;45.394;10.978;2022-08-19T17:00:31;4.65;;;1.42;;
23384;SDS011;11865;45.394;10.978;2022-08-19T17:03:05;1.92;;;1.58;;
23384;SDS011;11865;45.394;10.978;2022-08-19T17:05:44;5.32;;;1.52;;
23384;SDS011;11865;45.394;10.978;2022-08-19T17:08:14;5.82;;;1.58;;
23384;SDS011;11865;45.394;10.978;2022-08-19T17:10:43;2.40;;;1.30;;
23384;SDS011;11865;45.394;10.978;2022-08-19T17:13:31;3.97;;;1.80;;
23384;SDS011;11865;45.394;10.978;2022-08-19T17:15:59;4.57;;;1.90;;
23384;SDS011;11865;45.394;10.978;2022-08-19T17:18:27;9.48;;;2.55;;
23384;SDS011;11865;45.394;10.978;2022-08-19T17:21:00;3.50;;;1.50;;
23384;SDS011;11865;45.394;10.978;2022-08-19T17:23:28;2.25;;;1.70;;
23384;SDS011;11865;45.394;10.978;2022-08-19T17:26:10;2.58;;;1.70;;
23384;SDS011;11865;45.394;10.978;2022-08-19T17:28:44;5.45;;;1.92;;
23384;SDS011;11865;45.394;10.978;2022-08-19T17:31:16;4.30;;;1.80;;
23384;SDS011;11865;45.394;10.978;2022-08-19T17:33:45;4.07;;;1.63;;
23384;SDS011;11865;45.394;10.978;2022-08-19T17:36:15;3.00;;;1.83;;
23384;SDS011;11865;45.394;10.978;2022-08-19T17:38:44;6.95;;;2.17;;
23384;SDS011;11865;45.394;10.978;2022-08-19T17:41:12;3.20;;;1.67;;
23384;SDS011;11865;45.394;10.978;2022-08-19T17:43:39;6.93;;;1.95;;
23384;SDS011;11865;45.394;10.978;2022-08-19T17:46:10;3.58;;;1.83;;
23384;SDS011;11865;45.394;10.978;2022-08-19T17:48:48;3.65;;;1.90;;
23384;SDS011;11865;45.394;10.978;2022-08-19T17:51:37;3.58;;;2.03;;
23384;SDS011;11865;45.394;10.978;2022-08-19T17:54:08;4.70;;;1.88;;
23384;SDS011;11865;45.394;10.978;2022-08-19T17:56:38;5.45;;;1.92;;
23384;SDS011;11865;45.394;10.978;2022-08-19T17:59:07;4.93;;;2.28;;
23384;SDS011;11865;45.394;10.978;2022-08-19T18:01:41;1.50;;;1.40;;
23384;SDS011;11865;45.394;10.978;2022-08-19T18:04:21;2.25;;;1.40;;
23384;SDS011;11865;45.394;10.978;2022-08-19T18:06:51;3.75;;;1.40;;
23384;SDS011;11865;45.394;10.978;2022-08-19T18:09:24;5.95;;;1.75;;
23384;SDS011;11865;45.394;10.978;2022-08-19T18:17:41;5.20;;;1.77;;
23384;SDS011;11865;45.394;10.978;2022-08-19T18:20:09;4.95;;;1.70;;
23384;SDS011;11865;45.394;10.978;2022-08-19T18:22:40;2.40;;;1.50;;
23384;SDS011;11865;45.394;10.978;2022-08-19T18:25:12;3.83;;;1.70;;
23384;SDS011;11865;45.394;10.978;2022-08-19T18:27:45;4.40;;;1.70;;
23384;SDS011;11865;45.394;10.978;2022-08-19T18:30:13;5.45;;;1.50;;
23384;SDS011;11865;45.394;10.978;2022-08-19T18:32:41;5.47;;;1.67;;
23384;SDS011;11865;45.394;10.978;2022-08-19T18:35:11;4.85;;;2.00;;
23384;SDS011;11865;45.394;10.978;2022-08-19T18:37:41;5.72;;;2.10;;
23384;SDS011;11865;45.394;10.978;2022-08-19T18:40:10;4.35;;;2.40;;
23384;SDS011;11865;45.394;10.978;2022-08-19T18:42:59;6.68;;;2.20;;
23384;SDS011;11865;45.394;10.978;2022-08-19T18:45:45;12.93;;;2.10;;
23384;SDS011;11865;45.394;10.978;2022-08-19T18:48:33;6.13;;;2.03;;
23384;SDS011;11865;45.394;10.978;2022-08-19T18:51:20;4.38;;;1.90;;
23384;SDS011;11865;45.394;10.978;2022-08-19T18:53:54;3.13;;;2.08;;
23384;SDS011;11865;45.394;10.978;2022-08-19T18:56:24;2.97;;;1.75;;
23384;SDS011;11865;45.394;10.978;2022-08-19T18:58:54;5.03;;;2.13;;
23384;SDS011;11865;45.394;10.978;2022-08-19T19:01:41;4.38;;;2.00;;
23384;SDS011;11865;45.394;10.978;2022-08-19T19:04:17;4.40;;;2.25;;
23384;SDS011;11865;45.394;10.978;2022-08-19T19:06:46;9.35;;;2.30;;
23384;SDS011;11865;45.394;10.978;2022-08-19T19:09:15;4.38;;;2.30;;
23384;SDS011;11865;45.394;10.978;2022-08-19T19:11:47;5.53;;;2.30;;
23384;SDS011;11865;45.394;10.978;2022-08-19T19:14:23;6.82;;;2.47;;
23384;SDS011;11865;45.394;10.978;2022-08-19T19:17:14;6.35;;;2.20;;
23384;SDS011;11865;45.394;10.978;2022-08-19T19:19:42;5.78;;;2.13;;
23384;SDS011;11865;45.394;10.978;2022-08-19T19:22:12;4.50;;;2.20;;
23384;SDS011;11865;45.394;10.978;2022-08-19T19:24:41;4.72;;;2.00;;
23384;SDS011;11865;45.394;10.978;2022-08-19T19:27:12;6.95;;;2.25;;
23384;SDS011;11865;45.394;10.978;2022-08-19T19:29:41;7.70;;;2.00;;
23384;SDS011;11865;45.394;10.978;2022-08-19T19:32:10;4.53;;;2.00;;
23384;SDS011;11865;45.394;10.978;2022-08-19T19:34:44;4.05;;;2.30;;
23384;SDS011;11865;45.394;10.978;2022-08-19T19:37:11;7.90;;;2.22;;
23384;SDS011;11865;45.394;10.978;2022-08-19T19:39:39;5.40;;;1.80;;
23384;SDS011;11865;45.394;10.978;2022-08-19T19:42:13;4.95;;;2.00;;
23384;SDS011;11865;45.394;10.978;2022-08-19T19:44:47;5.28;;;2.20;;
23384;SDS011;11865;45.394;10.978;2022-08-19T19:47:16;3.55;;;1.90;;
23384;SDS011;11865;45.394;10.978;2022-08-19T19:49:45;5.30;;;2.30;;
23384;SDS011;11865;45.394;10.978;2022-08-19T19:52:37;5.05;;;2.38;;
23384;SDS011;11865;45.394;10.978;2022-08-19T19:55:06;4.53;;;2.25;;
23384;SDS011;11865;45.394;10.978;2022-08-19T19:57:35;4.03;;;2.08;;
23384;SDS011;11865;45.394;10.978;2022-08-19T20:00:05;5.22;;;2.03;;
23384;SDS011;11865;45.394;10.978;2022-08-19T20:02:34;3.30;;;2.00;;
23384;SDS011;11865;45.394;10.978;2022-08-19T20:05:02;5.82;;;3.05;;
23384;SDS011;11865;45.394;10.978;2022-08-19T20:07:30;8.25;;;2.38;;
23384;SDS011;11865;45.394;10.978;2022-08-19T20:10:16;3.95;;;2.45;;
23384;SDS011;11865;45.394;10.978;2022-08-19T20:12:43;6.50;;;2.67;;
23384;SDS011;11865;45.394;10.978;2022-08-19T20:15:11;6.00;;;2.53;;
23384;SDS011;11865;45.394;10.978;2022-08-19T20:17:40;5.93;;;2.88;;
23384;SDS011;11865;45.394;10.978;2022-08-19T20:20:09;4.25;;;2.40;;
23384;SDS011;11865;45.394;10.978;2022-08-19T20:22:41;4.45;;;2.63;;
23384;SDS011;11865;45.394;10.978;2022-08-19T20:25:09;7.45;;;2.50;;
23384;SDS011;11865;45.394;10.978;2022-08-19T20:27:37;4.57;;;2.47;;
23384;SDS011;11865;45.394;10.978;2022-08-19T20:30:07;7.38;;;2.67;;
23384;SDS011;11865;45.394;10.978;2022-08-19T20:32:40;8.80;;;3.15;;
23384;SDS011;11865;45.394;10.978;2022-08-19T20:35:09;5.22;;;3.05;;
23384;SDS011;11865;45.394;10.978;2022-08-19T20:37:37;3.92;;;2.50;;
23384;SDS011;11865;45.394;10.978;2022-08-19T20:40:06;5.28;;;2.67;;
23384;SDS011;11865;45.394;10.978;2022-08-19T20:42:39;5.78;;;2.40;;
23384;SDS011;11865;45.394;10.978;2022-08-19T20:45:09;6.68;;;2.92;;
23384;SDS011;11865;45.394;10.978;2022-08-19T20:47:59;6.03;;;2.97;;
23384;SDS011;11865;45.394;10.978;2022-08-19T20:50:30;6.68;;;2.80;;
23384;SDS011;11865;45.394;10.978;2022-08-19T20:52:58;6.72;;;2.88;;
23384;SDS011;11865;45.394;10.978;2022-08-19T20:55:26;8.77;;;2.90;;
23384;SDS011;11865;45.394;10.978;2022-08-19T20:57:56;6.07;;;2.88;;
23384;SDS011;11865;45.394;10.978;2022-08-19T21:00:24;7.22;;;3.10;;
23384;SDS011;11865;45.394;10.978;2022-08-19T21:02:52;6.72;;;3.08;;
23384;SDS011;11865;45.394;10.978;2022-08-19T21:05:19;7.43;;;2.58;;
23384;SDS011;11865;45.394;10.978;2022-08-19T21:07:47;6.75;;;3.10;;
23384;SDS011;11865;45.394;10.978;2022-08-19T21:10:14;6.85;;;3.45;;
23384;SDS011;11865;45.394;10.978;2022-08-19T21:12:42;5.47;;;2.70;;
23384;SDS011;11865;45.394;10.978;2022-08-19T21:15:10;7.72;;;3.25;;
23384;SDS011;11865;45.394;10.978;2022-08-19T21:17:37;7.65;;;2.90;;
23384;SDS011;11865;45.394;10.978;2022-08-19T21:20:06;5.63;;;2.65;;
23384;SDS011;11865;45.394;10.978;2022-08-19T21:22:35;6.63;;;2.47;;
23384;SDS011;11865;45.394;10.978;2022-08-19T21:25:04;5.35;;;3.00;;
23384;SDS011;11865;45.394;10.978;2022-08-19T21:27:32;7.30;;;3.00;;
23384;SDS011;11865;45.394;10.978;2022-08-19T21:29:59;6.78;;;2.60;;
23384;SDS011;11865;45.394;10.978;2022-08-19T21:32:27;4.57;;;2.60;;
23384;SDS011;11865;45.394;10.978;2022-08-19T21:34:55;5.13;;;2.42;;
23384;SDS011;11865;45.394;10.978;2022-08-19T21:37:23;4.60;;;2.40;;
23384;SDS011;11865;45.394;10.978;2022-08-19T21:39:52;6.35;;;2.83;;
23384;SDS011;11865;45.394;10.978;2022-08-19T21:42:21;5.85;;;3.10;;
23384;SDS011;11865;45.394;10.978;2022-08-19T21:44:49;5.88;;;3.05;;
23384;SDS011;11865;45.394;10.978;2022-08-19T21:47:17;6.80;;;2.70;;
23384;SDS011;11865;45.394;10.978;2022-08-19T21:49:44;6.32;;;2.85;;
23384;SDS011;11865;45.394;10.978;2022-08-19T21:52:12;8.30;;;2.75;;
23384;SDS011;11865;45.394;10.978;2022-08-19T21:54:39;7.45;;;2.72;;
23384;SDS011;11865;45.394;10.978;2022-08-19T21:57:07;15.52;;;3.60;;
23384;SDS011;11865;45.394;10.978;2022-08-19T21:59:39;4.57;;;2.50;;
23384;SDS011;11865;45.394;10.978;2022-08-19T22:02:13;5.95;;;2.58;;
23384;SDS011;11865;45.394;10.978;2022-08-19T22:04:47;7.57;;;2.50;;
23384;SDS011;11865;45.394;10.978;2022-08-19T22:07:15;7.65;;;2.35;;
23384;SDS011;11865;45.394;10.978;2022-08-19T22:09:44;11.77;;;2.67;;
23384;SDS011;11865;45.394;10.978;2022-08-19T22:14:52;4.60;;;2.42;;
23384;SDS011;11865;45.394;10.978;2022-08-19T22:17:21;8.48;;;2.47;;
23384;SDS011;11865;45.394;10.978;2022-08-19T22:19:49;9.07;;;2.65;;
23384;SDS011;11865;45.394;10.978;2022-08-19T22:22:21;7.53;;;2.88;;
23384;SDS011;11865;45.394;10.978;2022-08-19T22:25:07;8.13;;;2.92;;
23384;SDS011;11865;45.394;10.978;2022-08-19T22:27:38;5.47;;;2.72;;
23384;SDS011;11865;45.394;10.978;2022-08-19T22:30:06;5.65;;;2.42;;
23384;SDS011;11865;45.394;10.978;2022-08-19T22:32:42;7.28;;;2.40;;
23384;SDS011;11865;45.394;10.978;2022-08-19T22:35:22;5.60;;;2.60;;
23384;SDS011;11865;45.394;10.978;2022-08-19T22:37:50;7.82;;;2.53;;
23384;SDS011;11865;45.394;10.978;2022-08-19T22:40:18;4.72;;;2.63;;
23384;SDS011;11865;45.394;10.978;2022-08-19T22:42:46;3.63;;;2.20;;
23384;SDS011;11865;45.394;10.978;2022-08-19T22:45:15;3.85;;;2.50;;
23384;SDS011;11865;45.394;10.978;2022-08-19T22:47:44;4.65;;;2.75;;
23384;SDS011;11865;45.394;10.978;2022-08-19T22:50:11;9.07;;;2.95;;
23384;SDS011;11865;45.394;10.978;2022-08-19T22:52:39;9.15;;;2.92;;
23384;SDS011;11865;45.394;10.978;2022-08-19T22:55:18;5.32;;;2.75;;
23384;SDS011;11865;45.394;10.978;2022-08-19T22:57:45;5.75;;;2.63;;
23384;SDS011;11865;45.394;10.978;2022-08-19T23:00:13;10.90;;;3.00;;
23384;SDS011;11865;45.394;10.978;2022-08-19T23:02:41;3.25;;;2.40;;
23384;SDS011;11865;45.394;10.978;2022-08-19T23:05:18;5.30;;;2.42;;
23384;SDS011;11865;45.394;10.978;2022-08-19T23:07:48;4.00;;;2.40;;
23384;SDS011;11865;45.394;10.978;2022-08-19T23:10:19;3.60;;;2.47;;
23384;SDS011;11865;45.394;10.978;2022-08-19T23:12:54;3.53;;;2.50;;
23384;SDS011;11865;45.394;10.978;2022-08-19T23:15:26;7.28;;;2.88;;
23384;SDS011;11865;45.394;10.978;2022-08-19T23:17:56;9.40;;;3.08;;
23384;SDS011;11865;45.394;10.978;2022-08-19T23:20:27;5.80;;;2.85;;
23384;SDS011;11865;45.394;10.978;2022-08-19T23:23:04;6.60;;;2.50;;
23384;SDS011;11865;45.394;10.978;2022-08-19T23:25:33;4.70;;;2.67;;
23384;SDS011;11865;45.394;10.978;2022-08-19T23:28:03;5.43;;;2.83;;
23384;SDS011;11865;45.394;10.978;2022-08-19T23:30:50;5.82;;;3.03;;
23384;SDS011;11865;45.394;10.978;2022-08-19T23:33:29;5.97;;;3.00;;
23384;SDS011;11865;45.394;10.978;2022-08-19T23:36:17;5.50;;;2.75;;
23384;SDS011;11865;45.394;10.978;2022-08-19T23:38:46;3.35;;;2.47;;
23384;SDS011;11865;45.394;10.978;2022-08-19T23:41:15;5.63;;;2.70;;
23384;SDS011;11865;45.394;10.978;2022-08-19T23:43:45;4.10;;;2.60;;
23384;SDS011;11865;45.394;10.978;2022-08-19T23:46:16;7.30;;;2.88;;
23384;SDS011;11865;45.394;10.978;2022-08-19T23:48:53;5.97;;;2.80;;
23384;SDS011;11865;45.394;10.978;2022-08-19T23:51:21;4.57;;;2.60;;
23384;SDS011;11865;45.394;10.978;2022-08-19T23:53:49;9.93;;;2.85;;
23384;SDS011;11865;45.394;10.978;2022-08-19T23:56:16;5.00;;;2.95;;
23384;SDS011;11865;45.394;10.978;2022-08-19T23:58:44;5.00;;;2.72;;
